Time,TemperatureF,DewpointF,PressureIn,WindDirection,WindDirectionDegrees,WindSpeedMPH,WindSpeedGustMPH,Humidity,HourlyPrecipIn,Conditions,Clouds,dailyrainin,SoftwareType,DateUTC
2013-04-21 00:01:00,69.6,67.2,30.00,South,176,7.0,11.0,92,0.00,,---,0.01,VWS V14.01,2013-04-21 04:01:00,
2013-04-21 00:06:00,69.6,67.2,30.00,South,176,13.0,13.0,92,0.00,,---,0.00,VWS V14.01,2013-04-21 04:06:00,
2013-04-21 00:11:00,69.5,67.1,30.00,South,176,9.0,9.0,92,0.00,,---,0.00,VWS V14.01,2013-04-21 04:11:00,
2013-04-21 00:16:00,69.6,67.2,30.01,South,177,14.0,14.0,92,0.01,,---,0.01,VWS V14.01,2013-04-21 04:16:00,
2013-04-21 00:21:00,69.5,67.1,30.01,South,176,15.0,15.0,92,0.01,,---,0.01,VWS V14.01,2013-04-21 04:21:00,
2013-04-21 00:26:00,69.5,67.4,30.01,South,177,10.0,10.0,93,0.01,,---,0.01,VWS V14.01,2013-04-21 04:26:00,
2013-04-21 00:31:00,69.6,67.2,30.00,South,177,13.0,13.0,92,0.01,,---,0.01,VWS V14.01,2013-04-21 04:31:00,
2013-04-21 00:36:00,69.6,67.5,30.00,South,176,13.0,13.0,93,0.01,,---,0.01,VWS V14.01,2013-04-21 04:36:00,
2013-04-21 00:41:00,69.5,67.4,30.00,South,177,9.0,10.0,93,0.01,,---,0.01,VWS V14.01,2013-04-21 04:41:00,
2013-04-21 00:46:00,69.4,67.3,30.00,South,176,10.0,10.0,93,0.01,,---,0.01,VWS V14.01,2013-04-21 04:46:00,
2013-04-21 00:51:00,69.4,67.3,30.00,South,176,10.0,11.0,93,0.01,,---,0.01,VWS V14.01,2013-04-21 04:51:00,
2013-04-21 00:56:00,69.3,67.2,30.00,South,176,9.0,14.0,93,0.01,,---,0.01,VWS V14.01,2013-04-21 04:56:00,
2013-04-21 01:01:00,69.2,67.1,30.01,South,176,8.0,16.0,93,0.01,,---,0.01,VWS V14.01,2013-04-21 05:01:00,
2013-04-21 01:06:00,69.1,67.0,30.01,South,177,15.0,15.0,93,0.01,,---,0.01,VWS V14.01,2013-04-21 05:06:00,
2013-04-21 01:11:00,69.0,66.6,30.01,South,177,13.0,13.0,92,0.01,,---,0.01,VWS V14.01,2013-04-21 05:11:00,
2013-04-21 01:16:00,69.0,66.6,30.00,South,177,11.0,11.0,92,0.00,,---,0.01,VWS V14.01,2013-04-21 05:16:00,
2013-04-21 01:21:00,69.0,66.6,30.00,South,177,10.0,15.0,92,0.00,,---,0.01,VWS V14.01,2013-04-21 05:21:00,
2013-04-21 01:26:00,69.0,66.6,30.00,South,176,10.0,13.0,92,0.00,,---,0.01,VWS V14.01,2013-04-21 05:26:00,
2013-04-21 01:31:00,69.0,66.6,30.00,South,176,7.0,10.0,92,0.00,,---,0.01,VWS V14.01,2013-04-21 05:31:00,
2013-04-21 01:36:00,69.0,66.6,30.00,South,177,10.0,10.0,92,0.00,,---,0.01,VWS V14.01,2013-04-21 05:36:00,
2013-04-21 01:41:00,68.9,66.5,30.00,South,177,10.0,14.0,92,0.00,,---,0.01,VWS V14.01,2013-04-21 05:41:00,
2013-04-21 01:46:00,68.8,66.4,30.00,South,176,10.0,17.0,92,0.00,,---,0.01,VWS V14.01,2013-04-21 05:46:00,
2013-04-21 01:51:00,68.7,66.3,30.00,South,177,10.0,15.0,92,0.00,,---,0.01,VWS V14.01,2013-04-21 05:51:00,
2013-04-21 01:56:00,68.6,66.2,30.00,South,176,10.0,16.0,92,0.00,,---,0.01,VWS V14.01,2013-04-21 05:56:00,
2013-04-21 02:01:00,68.5,66.1,29.99,South,177,11.0,20.0,92,0.00,,---,0.01,VWS V14.01,2013-04-21 06:01:00,
2013-04-21 02:06:00,68.4,66.0,29.99,South,176,13.0,16.0,92,0.00,,---,0.01,VWS V14.01,2013-04-21 06:06:00,
2013-04-21 02:11:00,68.3,65.9,29.99,South,176,13.0,16.0,92,0.00,,---,0.01,VWS V14.01,2013-04-21 06:11:00,
2013-04-21 02:16:00,68.2,65.8,29.99,South,177,11.0,16.0,92,0.00,,---,0.01,VWS V14.01,2013-04-21 06:16:00,
2013-04-21 02:21:00,68.1,65.7,29.99,South,177,10.0,18.0,92,0.00,,---,0.01,VWS V14.01,2013-04-21 06:21:00,
2013-04-21 02:26:00,68.2,65.8,29.99,South,177,14.0,16.0,92,0.00,,---,0.01,VWS V14.01,2013-04-21 06:26:00,
2013-04-21 02:31:00,68.3,65.9,29.97,South,177,10.0,15.0,92,0.00,,---,0.01,VWS V14.01,2013-04-21 06:31:00,
2013-04-21 02:36:00,68.5,66.1,29.97,South,176,13.0,16.0,92,0.00,,---,0.01,VWS V14.01,2013-04-21 06:36:00,
2013-04-21 02:41:00,68.9,66.8,29.97,South,177,7.0,19.0,93,0.00,,---,0.01,VWS V14.01,2013-04-21 06:41:00,
2013-04-21 02:46:00,69.2,66.8,29.95,South,176,11.0,14.0,92,0.00,,---,0.01,VWS V14.01,2013-04-21 06:46:00,
2013-04-21 02:51:00,69.3,66.9,29.95,South,176,15.0,19.0,92,0.00,,---,0.01,VWS V14.01,2013-04-21 06:51:00,
2013-04-21 02:56:00,69.4,67.0,29.95,South,177,12.0,21.0,92,0.00,,---,0.01,VWS V14.01,2013-04-21 06:56:00,
2013-04-21 03:01:00,69.7,67.3,29.96,South,177,21.0,22.0,92,0.00,,---,0.01,VWS V14.01,2013-04-21 07:01:00,
2013-04-21 03:06:00,69.6,66.9,29.96,South,176,18.0,24.0,91,0.00,,---,0.01,VWS V14.01,2013-04-21 07:06:00,
2013-04-21 03:11:00,69.6,66.9,29.96,South,176,21.0,23.0,91,0.00,,---,0.01,VWS V14.01,2013-04-21 07:11:00,
2013-04-21 03:16:00,69.8,67.1,29.96,South,177,18.0,23.0,91,0.00,,---,0.01,VWS V14.01,2013-04-21 07:16:00,
2013-04-21 03:21:00,69.6,66.9,29.96,South,176,20.0,23.0,91,0.00,,---,0.01,VWS V14.01,2013-04-21 07:21:00,
2013-04-21 03:26:00,69.7,67.0,29.96,South,176,10.0,18.0,91,0.00,,---,0.01,VWS V14.01,2013-04-21 07:26:00,
2013-04-21 03:31:00,69.8,67.1,29.96,South,176,13.0,18.0,91,0.00,,---,0.01,VWS V14.01,2013-04-21 07:31:00,
2013-04-21 03:36:00,69.9,67.2,29.96,South,177,10.0,20.0,91,0.00,,---,0.01,VWS V14.01,2013-04-21 07:36:00,
2013-04-21 03:41:00,69.9,67.2,29.96,South,176,15.0,19.0,91,0.00,,---,0.01,VWS V14.01,2013-04-21 07:41:00,
2013-04-21 03:46:00,70.1,67.4,29.96,South,177,7.0,17.0,91,0.00,,---,0.01,VWS V14.01,2013-04-21 07:46:00,
2013-04-21 03:51:00,70.1,67.4,29.96,South,177,14.0,16.0,91,0.00,,---,0.01,VWS V14.01,2013-04-21 07:51:00,
2013-04-21 03:56:00,70.1,67.4,29.96,South,176,12.0,16.0,91,0.00,,---,0.01,VWS V14.01,2013-04-21 07:56:00,
2013-04-21 04:01:00,70.0,67.3,29.95,South,176,10.0,16.0,91,0.00,,---,0.01,VWS V14.01,2013-04-21 08:01:00,
2013-04-21 04:06:00,70.1,67.4,29.95,South,176,18.0,20.0,91,0.00,,---,0.01,VWS V14.01,2013-04-21 08:06:00,
2013-04-21 04:11:00,70.0,67.3,29.95,South,177,10.0,20.0,91,0.00,,---,0.01,VWS V14.01,2013-04-21 08:11:00,
2013-04-21 04:16:00,70.1,67.4,29.95,South,177,11.0,23.0,91,0.00,,---,0.01,VWS V14.01,2013-04-21 08:16:00,
2013-04-21 04:21:00,70.3,67.6,29.95,South,177,21.0,23.0,91,0.00,,---,0.01,VWS V14.01,2013-04-21 08:21:00,
2013-04-21 04:26:00,70.4,67.7,29.95,South,177,17.0,23.0,91,0.00,,---,0.01,VWS V14.01,2013-04-21 08:26:00,
2013-04-21 04:31:00,70.3,67.6,29.95,South,176,13.0,23.0,91,0.00,,---,0.01,VWS V14.01,2013-04-21 08:31:00,
2013-04-21 04:36:00,70.6,67.8,29.95,South,177,20.0,22.0,91,0.00,,---,0.01,VWS V14.01,2013-04-21 08:36:00,
2013-04-21 04:41:00,70.8,68.1,29.95,South,176,11.0,21.0,91,0.00,,---,0.01,VWS V14.01,2013-04-21 08:41:00,
2013-04-21 04:46:00,70.9,68.2,29.95,South,177,14.0,22.0,91,0.00,,---,0.01,VWS V14.01,2013-04-21 08:46:00,
2013-04-21 04:51:00,71.0,68.2,29.95,South,176,10.0,20.0,91,0.00,,---,0.01,VWS V14.01,2013-04-21 08:51:00,
2013-04-21 04:56:00,71.2,68.4,29.95,South,177,11.0,18.0,91,0.00,,---,0.01,VWS V14.01,2013-04-21 08:56:00,
2013-04-21 05:01:00,71.3,68.9,29.94,South,177,10.0,15.0,92,0.00,,---,0.01,VWS V14.01,2013-04-21 09:01:00,
2013-04-21 05:06:00,71.2,68.4,29.94,South,176,13.0,17.0,91,0.00,,---,0.01,VWS V14.01,2013-04-21 09:06:00,
2013-04-21 05:11:00,71.3,68.5,29.94,South,177,17.0,18.0,91,0.00,,---,0.01,VWS V14.01,2013-04-21 09:11:00,
2013-04-21 05:16:00,71.1,68.3,29.95,South,176,9.0,17.0,91,0.00,,---,0.01,VWS V14.01,2013-04-21 09:16:00,
2013-04-21 05:21:00,71.1,68.3,29.95,South,177,18.0,20.0,91,0.00,,---,0.01,VWS V14.01,2013-04-21 09:21:00,
2013-04-21 05:26:00,71.3,68.9,29.95,South,177,11.0,18.0,92,0.00,,---,0.01,VWS V14.01,2013-04-21 09:26:00,
2013-04-21 05:31:00,71.3,68.9,29.96,South,177,11.0,17.0,92,0.00,,---,0.01,VWS V14.01,2013-04-21 09:31:00,
2013-04-21 05:36:00,71.1,68.7,29.96,South,176,12.0,13.0,92,0.00,,---,0.01,VWS V14.01,2013-04-21 09:36:00,
2013-04-21 05:41:00,71.1,68.7,29.96,South,177,9.0,12.0,92,0.00,,---,0.01,VWS V14.01,2013-04-21 09:41:00,
2013-04-21 05:46:00,71.0,68.6,29.96,South,176,8.0,12.0,92,0.00,,---,0.01,VWS V14.01,2013-04-21 09:46:00,
2013-04-21 05:51:00,71.1,68.7,29.96,South,176,10.0,12.0,92,0.00,,---,0.01,VWS V14.01,2013-04-21 09:51:00,
2013-04-21 05:56:00,71.1,69.0,29.96,South,177,10.0,14.0,93,0.00,,---,0.01,VWS V14.01,2013-04-21 09:56:00,
2013-04-21 06:01:00,71.2,69.1,29.95,South,176,10.0,13.0,93,0.00,,---,0.01,VWS V14.01,2013-04-21 10:01:00,
2013-04-21 06:06:00,71.5,69.4,29.95,South,177,11.0,11.0,93,0.00,,---,0.01,VWS V14.01,2013-04-21 10:06:00,
2013-04-21 06:11:00,71.4,69.3,29.95,South,177,11.0,14.0,93,0.00,,---,0.01,VWS V14.01,2013-04-21 10:11:00,
2013-04-21 06:16:00,71.3,69.2,29.95,South,177,8.0,11.0,93,0.00,,---,0.01,VWS V14.01,2013-04-21 10:16:00,
2013-04-21 06:21:00,71.3,69.2,29.95,South,177,0.0,8.0,93,0.00,,---,0.01,VWS V14.01,2013-04-21 10:21:00,
2013-04-21 06:26:00,71.4,69.6,29.95,South,176,0.0,4.0,94,0.00,,---,0.01,VWS V14.01,2013-04-21 10:26:00,
2013-04-21 06:31:00,71.3,69.2,29.95,South,177,0.0,1.0,93,0.00,,---,0.01,VWS V14.01,2013-04-21 10:31:00,
2013-04-21 06:36:00,71.2,69.1,29.95,South,177,0.0,0.0,93,0.00,,---,0.01,VWS V14.01,2013-04-21 10:36:00,
2013-04-21 06:41:00,71.2,69.1,29.95,South,177,0.0,1.0,93,0.00,,---,0.01,VWS V14.01,2013-04-21 10:41:00,
2013-04-21 06:46:00,71.1,69.0,29.96,South,176,0.0,1.0,93,0.00,,---,0.01,VWS V14.01,2013-04-21 10:46:00,
2013-04-21 06:51:00,71.1,69.0,29.96,South,177,0.0,0.0,93,0.00,,---,0.01,VWS V14.01,2013-04-21 10:51:00,
2013-04-21 06:56:00,71.0,68.9,29.96,South,177,0.0,1.0,93,0.00,,---,0.01,VWS V14.01,2013-04-21 10:56:00,
2013-04-21 07:01:00,71.0,69.2,29.97,South,176,0.0,1.0,94,0.00,,---,0.01,VWS V14.01,2013-04-21 11:01:00,
2013-04-21 07:06:00,70.8,69.0,29.97,South,177,0.0,1.0,94,0.00,,---,0.01,VWS V14.01,2013-04-21 11:06:00,
2013-04-21 07:11:00,70.8,69.0,29.97,South,176,0.0,0.0,94,0.00,,---,0.01,VWS V14.01,2013-04-21 11:11:00,
2013-04-21 07:16:00,70.8,69.0,29.97,South,177,0.0,1.0,94,0.00,,---,0.01,VWS V14.01,2013-04-21 11:16:00,
2013-04-21 07:21:00,70.8,69.0,29.97,South,177,7.0,9.0,94,0.00,,---,0.01,VWS V14.01,2013-04-21 11:21:00,
2013-04-21 07:26:00,70.9,69.1,29.97,South,177,0.0,10.0,94,0.00,,---,0.01,VWS V14.01,2013-04-21 11:26:00,
2013-04-21 07:31:00,71.1,69.3,29.97,South,177,8.0,10.0,94,0.00,,---,0.01,VWS V14.01,2013-04-21 11:31:00,
2013-04-21 07:36:00,71.3,69.5,29.97,South,176,0.0,9.0,94,0.00,,---,0.01,VWS V14.01,2013-04-21 11:36:00,
2013-04-21 07:41:00,71.3,69.5,29.97,South,176,0.0,0.0,94,0.00,,---,0.01,VWS V14.01,2013-04-21 11:41:00,
2013-04-21 07:46:00,71.3,69.5,29.98,South,177,0.0,2.0,94,0.00,,---,0.01,VWS V14.01,2013-04-21 11:46:00,
2013-04-21 07:51:00,71.4,69.6,29.98,South,177,0.0,2.0,94,0.00,,---,0.01,VWS V14.01,2013-04-21 11:51:00,
2013-04-21 07:56:00,71.4,69.6,29.98,South,177,0.0,2.0,94,0.00,,---,0.01,VWS V14.01,2013-04-21 11:56:00,
2013-04-21 08:01:00,71.5,69.7,29.98,South,177,1.0,1.0,94,0.00,,---,0.01,VWS V14.01,2013-04-21 12:01:00,
2013-04-21 08:06:00,71.5,69.7,29.98,South,177,0.0,2.0,94,0.00,,---,0.01,VWS V14.01,2013-04-21 12:06:00,
2013-04-21 08:11:00,71.5,69.7,29.98,South,177,0.0,2.0,94,0.00,,---,0.01,VWS V14.01,2013-04-21 12:11:00,
2013-04-21 08:16:00,71.5,69.7,29.99,South,177,0.0,2.0,94,0.00,,---,0.01,VWS V14.01,2013-04-21 12:16:00,
2013-04-21 08:21:00,71.5,69.7,29.99,South,176,0.0,1.0,94,0.00,,---,0.01,VWS V14.01,2013-04-21 12:21:00,
2013-04-21 08:26:00,71.5,69.7,29.99,South,177,0.0,1.0,94,0.00,,---,0.01,VWS V14.01,2013-04-21 12:26:00,
2013-04-21 08:31:00,71.6,69.8,29.98,South,177,0.0,1.0,94,0.00,,---,0.01,VWS V14.01,2013-04-21 12:31:00,
2013-04-21 08:36:00,71.6,69.8,29.98,South,177,0.0,2.0,94,0.00,,---,0.01,VWS V14.01,2013-04-21 12:36:00,
2013-04-21 08:41:00,71.6,69.8,29.98,South,177,0.0,4.0,94,0.00,,---,0.01,VWS V14.01,2013-04-21 12:41:00,
2013-04-21 08:46:00,71.9,70.1,29.99,South,177,0.0,1.0,94,0.00,,---,0.01,VWS V14.01,2013-04-21 12:46:00,
2013-04-21 08:51:00,72.0,70.2,29.99,South,177,1.0,1.0,94,0.00,,---,0.01,VWS V14.01,2013-04-21 12:51:00,
2013-04-21 08:56:00,72.2,70.4,29.99,South,177,1.0,2.0,94,0.00,,---,0.01,VWS V14.01,2013-04-21 12:56:00,
2013-04-21 09:01:00,72.6,70.8,29.99,South,177,9.0,11.0,94,0.00,,---,0.01,VWS V14.01,2013-04-21 13:01:00,
2013-04-21 09:06:00,72.7,70.6,29.99,South,177,9.0,14.0,93,0.00,,---,0.01,VWS V14.01,2013-04-21 13:06:00,
2013-04-21 09:11:00,72.9,70.8,29.99,South,176,10.0,13.0,93,0.00,,---,0.01,VWS V14.01,2013-04-21 13:11:00,
2013-04-21 09:16:00,73.2,71.1,29.99,South,176,8.0,10.0,93,0.00,,---,0.01,VWS V14.01,2013-04-21 13:16:00,
2013-04-21 09:21:00,73.5,71.4,29.99,South,177,1.0,9.0,93,0.00,,---,0.01,VWS V14.01,2013-04-21 13:21:00,
2013-04-21 09:26:00,73.8,71.7,29.99,South,177,0.0,8.0,93,0.00,,---,0.01,VWS V14.01,2013-04-21 13:26:00,
2013-04-21 09:31:00,73.9,71.4,29.99,South,177,11.0,11.0,92,0.00,,---,0.01,VWS V14.01,2013-04-21 13:31:00,
2013-04-21 09:36:00,74.1,71.3,29.99,South,177,13.0,14.0,91,0.00,,---,0.01,VWS V14.01,2013-04-21 13:36:00,
2013-04-21 09:41:00,74.3,71.5,29.99,South,177,7.0,14.0,91,0.00,,---,0.01,VWS V14.01,2013-04-21 13:41:00,
2013-04-21 09:46:00,74.6,71.8,29.99,South,177,12.0,14.0,91,0.00,,---,0.01,VWS V14.01,2013-04-21 13:46:00,
2013-04-21 09:51:00,74.3,71.2,29.99,South,177,9.0,15.0,90,0.00,,---,0.01,VWS V14.01,2013-04-21 13:51:00,
2013-04-21 09:56:00,74.2,71.1,29.99,South,177,9.0,15.0,90,0.00,,---,0.01,VWS V14.01,2013-04-21 13:56:00,
2013-04-21 10:01:00,74.2,71.4,29.99,South,177,17.0,17.0,91,0.00,,---,0.01,VWS V14.01,2013-04-21 14:01:00,
2013-04-21 10:06:00,74.2,71.1,29.99,South,177,10.0,16.0,90,0.00,,---,0.01,VWS V14.01,2013-04-21 14:06:00,
2013-04-21 10:11:00,74.1,71.0,29.99,South,177,11.0,16.0,90,0.00,,---,0.01,VWS V14.01,2013-04-21 14:11:00,
2013-04-21 10:16:00,74.3,71.2,29.99,South,177,15.0,15.0,90,0.00,,---,0.01,VWS V14.01,2013-04-21 14:16:00,
2013-04-21 10:21:00,74.4,71.3,29.99,South,177,16.0,20.0,90,0.00,,---,0.01,VWS V14.01,2013-04-21 14:21:00,
2013-04-21 10:26:00,74.2,71.1,29.99,South,177,18.0,18.0,90,0.00,,---,0.01,VWS V14.01,2013-04-21 14:26:00,
2013-04-21 10:31:00,74.2,71.4,30.00,South,177,16.0,18.0,91,0.00,,---,0.01,VWS V14.01,2013-04-21 14:31:00,
2013-04-21 10:36:00,74.0,71.2,30.00,South,177,14.0,17.0,91,0.00,,---,0.01,VWS V14.01,2013-04-21 14:36:00,
2013-04-21 10:41:00,73.9,71.1,30.00,South,177,0.0,16.0,91,0.00,,---,0.01,VWS V14.01,2013-04-21 14:41:00,
2013-04-21 10:46:00,73.6,70.8,30.01,South,176,0.0,1.0,91,0.00,,---,0.01,VWS V14.01,2013-04-21 14:46:00,
2013-04-21 10:51:00,73.9,71.4,30.01,South,176,0.0,10.0,92,0.00,,---,0.01,VWS V14.01,2013-04-21 14:51:00,
2013-04-21 10:56:00,74.1,71.6,30.01,South,177,7.0,10.0,92,0.00,,---,0.01,VWS V14.01,2013-04-21 14:56:00,
2013-04-21 11:01:00,74.4,71.9,30.01,South,176,12.0,12.0,92,0.00,,---,0.01,VWS V14.01,2013-04-21 15:01:00,
2013-04-21 11:06:00,74.5,71.7,30.01,South,177,1.0,11.0,91,0.00,,---,0.01,VWS V14.01,2013-04-21 15:06:00,
2013-04-21 11:11:00,74.6,71.8,30.01,South,176,0.0,10.0,91,0.00,,---,0.01,VWS V14.01,2013-04-21 15:11:00,
2013-04-21 11:16:00,75.0,72.2,30.01,South,176,6.0,8.0,91,0.00,,---,0.01,VWS V14.01,2013-04-21 15:16:00,
2013-04-21 11:21:00,75.3,72.5,30.01,South,177,0.0,7.0,91,0.00,,---,0.01,VWS V14.01,2013-04-21 15:21:00,
2013-04-21 11:26:00,75.8,72.7,30.01,South,177,1.0,6.0,90,0.00,,---,0.01,VWS V14.01,2013-04-21 15:26:00,
2013-04-21 11:31:00,76.0,72.5,30.01,South,176,0.0,6.0,89,0.00,,---,0.01,VWS V14.01,2013-04-21 15:31:00,
2013-04-21 11:36:00,76.1,72.3,30.01,South,177,0.0,9.0,88,0.00,,---,0.01,VWS V14.01,2013-04-21 15:36:00,
2013-04-21 11:41:00,76.0,72.2,30.01,South,177,5.0,9.0,88,0.00,,---,0.01,VWS V14.01,2013-04-21 15:41:00,
2013-04-21 11:46:00,75.8,72.0,30.02,South,177,0.0,9.0,88,0.00,,---,0.01,VWS V14.01,2013-04-21 15:46:00,
2013-04-21 11:51:00,75.8,72.0,30.02,South,177,0.0,10.0,88,0.00,,---,0.01,VWS V14.01,2013-04-21 15:51:00,
2013-04-21 11:56:00,75.8,72.0,30.02,South,177,1.0,8.0,88,0.00,,---,0.01,VWS V14.01,2013-04-21 15:56:00,
2013-04-21 12:01:00,76.0,71.9,30.02,South,177,1.0,7.0,87,0.00,,---,0.01,VWS V14.01,2013-04-21 16:01:00,
2013-04-21 12:06:00,76.2,72.1,30.02,South,176,2.0,8.0,87,0.00,,---,0.01,VWS V14.01,2013-04-21 16:06:00,
2013-04-21 12:11:00,76.3,72.2,30.02,South,177,0.0,7.0,87,0.00,,---,0.01,VWS V14.01,2013-04-21 16:11:00,
2013-04-21 12:16:00,76.8,72.6,30.02,South,177,4.0,7.0,87,0.00,,---,0.01,VWS V14.01,2013-04-21 16:16:00,
2013-04-21 12:21:00,77.3,73.1,30.02,South,177,5.0,8.0,87,0.00,,---,0.01,VWS V14.01,2013-04-21 16:21:00,
2013-04-21 12:26:00,77.6,72.7,30.02,South,176,1.0,7.0,85,0.00,,---,0.01,VWS V14.01,2013-04-21 16:26:00,
2013-04-21 12:31:00,77.8,72.6,30.01,South,177,5.0,8.0,84,0.00,,---,0.01,VWS V14.01,2013-04-21 16:31:00,
2013-04-21 12:36:00,78.2,72.6,30.01,South,177,0.0,10.0,83,0.00,,---,0.01,VWS V14.01,2013-04-21 16:36:00,
2013-04-21 12:41:00,78.4,72.1,30.01,South,176,7.0,15.0,81,0.00,,---,0.01,VWS V14.01,2013-04-21 16:41:00,
2013-04-21 12:46:00,78.3,72.0,30.00,South,177,6.0,11.0,81,0.00,,---,0.01,VWS V14.01,2013-04-21 16:46:00,
2013-04-21 12:51:00,78.3,71.3,30.00,South,176,0.0,16.0,79,0.00,,---,0.01,VWS V14.01,2013-04-21 16:51:00,
2013-04-21 12:56:00,78.6,71.6,30.00,South,177,2.0,13.0,79,0.00,,---,0.01,VWS V14.01,2013-04-21 16:56:00,
2013-04-21 13:01:00,78.7,72.0,30.00,South,177,8.0,14.0,80,0.00,,---,0.01,VWS V14.01,2013-04-21 17:01:00,
2013-04-21 13:06:00,78.7,72.0,30.00,South,177,5.0,10.0,80,0.00,,---,0.01,VWS V14.01,2013-04-21 17:06:00,
2013-04-21 13:11:00,78.6,72.3,30.00,South,177,6.0,12.0,81,0.00,,---,0.01,VWS V14.01,2013-04-21 17:11:00,
2013-04-21 13:16:00,78.5,72.2,29.99,South,177,2.0,9.0,81,0.00,,---,0.01,VWS V14.01,2013-04-21 17:16:00,
2013-04-21 13:21:00,78.5,72.2,29.99,South,177,5.0,11.0,81,0.00,,---,0.01,VWS V14.01,2013-04-21 17:21:00,
2013-04-21 13:26:00,78.3,72.0,29.99,South,177,5.0,13.0,81,0.00,,---,0.01,VWS V14.01,2013-04-21 17:26:00,
2013-04-21 13:31:00,78.2,71.9,29.98,South,177,11.0,14.0,81,0.00,,---,0.01,VWS V14.01,2013-04-21 17:31:00,
2013-04-21 13:36:00,77.7,71.0,29.98,South,176,9.0,16.0,80,0.00,,---,0.01,VWS V14.01,2013-04-21 17:36:00,
2013-04-21 13:41:00,77.6,71.3,29.98,South,177,11.0,15.0,81,0.00,,---,0.01,VWS V14.01,2013-04-21 17:41:00,
2013-04-21 13:46:00,77.6,71.3,29.98,South,176,9.0,14.0,81,0.00,,---,0.01,VWS V14.01,2013-04-21 17:46:00,
2013-04-21 13:51:00,77.5,71.6,29.98,South,177,11.0,15.0,82,0.00,,---,0.01,VWS V14.01,2013-04-21 17:51:00,
2013-04-21 13:56:00,77.4,71.5,29.98,South,177,11.0,15.0,82,0.00,,---,0.01,VWS V14.01,2013-04-21 17:56:00,
2013-04-21 14:01:00,77.2,71.3,29.97,South,177,11.0,15.0,82,0.00,,---,0.01,VWS V14.01,2013-04-21 18:01:00,
2013-04-21 14:06:00,76.6,71.4,29.97,South,177,12.0,18.0,84,0.00,,---,0.01,VWS V14.01,2013-04-21 18:06:00,
2013-04-21 14:11:00,76.0,71.2,29.97,South,177,13.0,19.0,85,0.00,,---,0.01,VWS V14.01,2013-04-21 18:11:00,
2013-04-21 14:16:00,75.5,71.4,29.97,South,177,15.0,19.0,87,0.00,,---,0.01,VWS V14.01,2013-04-21 18:16:00,
2013-04-21 14:21:00,75.0,70.9,29.97,South,177,14.0,17.0,87,0.00,,---,0.01,VWS V14.01,2013-04-21 18:21:00,
2013-04-21 14:26:00,74.9,71.1,29.97,South,176,10.0,18.0,88,0.00,,---,0.01,VWS V14.01,2013-04-21 18:26:00,
2013-04-21 14:31:00,74.8,71.0,29.97,South,177,15.0,17.0,88,0.00,,---,0.01,VWS V14.01,2013-04-21 18:31:00,
2013-04-21 14:36:00,74.9,71.4,29.97,South,177,10.0,15.0,89,0.00,,---,0.01,VWS V14.01,2013-04-21 18:36:00,
2013-04-21 14:41:00,75.2,71.7,29.97,South,176,13.0,14.0,89,0.00,,---,0.01,VWS V14.01,2013-04-21 18:41:00,
2013-04-21 14:46:00,75.0,71.2,29.96,South,177,9.0,15.0,88,0.00,,---,0.01,VWS V14.01,2013-04-21 18:46:00,
2013-04-21 14:51:00,74.9,71.1,29.96,South,177,14.0,15.0,88,0.00,,---,0.01,VWS V14.01,2013-04-21 18:51:00,
2013-04-21 14:56:00,75.1,71.3,29.96,South,176,10.0,14.0,88,0.00,,---,0.01,VWS V14.01,2013-04-21 18:56:00,
2013-04-21 15:01:00,75.2,71.4,29.95,South,176,8.0,15.0,88,0.00,,---,0.01,VWS V14.01,2013-04-21 19:01:00,
2013-04-21 15:06:00,75.3,71.5,29.95,South,177,11.0,15.0,88,0.00,,---,0.01,VWS V14.01,2013-04-21 19:06:00,
2013-04-21 15:11:00,75.4,71.6,29.95,South,176,10.0,11.0,88,0.00,,---,0.01,VWS V14.01,2013-04-21 19:11:00,
2013-04-21 15:15:00,75.6,71.8,29.94,South,176,9.0,11.0,88,0.00,,---,0.01,VWS V14.01,2013-04-21 19:15:00,
2013-04-21 15:20:00,75.4,71.3,29.94,South,176,10.0,11.0,87,0.00,,---,0.01,VWS V14.01,2013-04-21 19:20:00,
2013-04-21 15:25:00,75.4,71.3,29.94,South,176,10.0,13.0,87,0.00,,---,0.01,VWS V14.01,2013-04-21 19:25:00,
2013-04-21 15:30:00,75.5,71.4,29.94,South,177,10.0,14.0,87,0.00,,---,0.01,VWS V14.01,2013-04-21 19:30:00,
2013-04-21 15:35:00,75.8,72.0,29.94,South,176,7.0,13.0,88,0.00,,---,0.01,VWS V14.01,2013-04-21 19:35:00,
2013-04-21 15:40:00,76.4,72.2,29.94,South,176,0.0,10.0,87,0.00,,---,0.01,VWS V14.01,2013-04-21 19:40:00,
2013-04-21 15:45:00,77.2,73.0,29.93,South,177,0.0,10.0,87,0.00,,---,0.01,VWS V14.01,2013-04-21 19:45:00,
2013-04-21 15:50:00,77.8,73.3,29.93,South,176,1.0,11.0,86,0.00,,---,0.01,VWS V14.01,2013-04-21 19:50:00,
2013-04-21 15:55:00,78.3,73.4,29.93,South,176,6.0,10.0,85,0.00,,---,0.01,VWS V14.01,2013-04-21 19:55:00,
2013-04-21 16:00:00,78.4,73.2,29.92,South,176,5.0,9.0,84,0.00,,---,0.01,VWS V14.01,2013-04-21 20:00:00,
2013-04-21 16:05:00,78.5,72.9,29.92,South,176,7.0,11.0,83,0.00,,---,0.01,VWS V14.01,2013-04-21 20:05:00,
2013-04-21 16:10:00,78.4,72.4,29.92,South,176,2.0,11.0,82,0.00,,---,0.01,VWS V14.01,2013-04-21 20:10:00,
2013-04-21 16:15:00,78.1,72.2,29.91,South,176,4.0,9.0,82,0.00,,---,0.01,VWS V14.01,2013-04-21 20:15:00,
2013-04-21 16:20:00,78.2,72.3,29.91,South,176,7.0,14.0,82,0.00,,---,0.01,VWS V14.01,2013-04-21 20:20:00,
2013-04-21 16:25:00,77.8,72.2,29.91,South,177,0.0,13.0,83,0.00,,---,0.01,VWS V14.01,2013-04-21 20:25:00,
2013-04-21 16:30:00,77.2,71.6,29.91,South,177,7.0,16.0,83,0.00,,---,0.01,VWS V14.01,2013-04-21 20:30:00,
2013-04-21 16:35:00,76.7,71.5,29.91,South,177,10.0,14.0,84,0.00,,---,0.01,VWS V14.01,2013-04-21 20:35:00,
2013-04-21 16:40:00,76.5,71.7,29.91,South,176,14.0,15.0,85,0.00,,---,0.01,VWS V14.01,2013-04-21 20:40:00,
2013-04-21 16:45:00,76.2,71.4,29.91,South,176,7.0,16.0,85,0.00,,---,0.01,VWS V14.01,2013-04-21 20:45:00,
2013-04-21 16:50:00,76.1,71.6,29.91,South,177,7.0,14.0,86,0.00,,---,0.01,VWS V14.01,2013-04-21 20:50:00,
2013-04-21 16:55:00,76.0,71.5,29.91,South,176,13.0,17.0,86,0.00,,---,0.01,VWS V14.01,2013-04-21 20:55:00,
2013-04-21 17:00:00,76.1,71.9,29.90,South,176,16.0,18.0,87,0.00,,---,0.01,VWS V14.01,2013-04-21 21:00:00,
2013-04-21 17:05:00,75.9,71.8,29.90,South,177,16.0,18.0,87,0.00,,---,0.01,VWS V14.01,2013-04-21 21:05:00,
2013-04-21 17:10:00,75.7,71.6,29.90,South,177,15.0,17.0,87,0.00,,---,0.01,VWS V14.01,2013-04-21 21:10:00,
2013-04-21 17:15:00,75.4,71.3,29.91,South,177,12.0,17.0,87,0.00,,---,0.01,VWS V14.01,2013-04-21 21:15:00,
2013-04-21 17:20:00,75.3,71.2,29.91,South,176,16.0,19.0,87,0.00,,---,0.01,VWS V14.01,2013-04-21 21:20:00,
2013-04-21 17:25:00,75.3,71.2,29.91,South,177,12.0,20.0,87,0.00,,---,0.01,VWS V14.01,2013-04-21 21:25:00,
2013-04-21 17:30:00,75.5,71.7,29.92,South,177,13.0,14.0,88,0.00,,---,0.01,VWS V14.01,2013-04-21 21:30:00,
2013-04-21 17:35:00,75.3,71.2,29.92,South,177,10.0,14.0,87,0.00,,---,0.01,VWS V14.01,2013-04-21 21:35:00,
2013-04-21 17:40:00,75.3,71.2,29.92,South,177,8.0,16.0,87,0.00,,---,0.01,VWS V14.01,2013-04-21 21:40:00,
2013-04-21 17:45:00,75.3,71.5,29.93,South,177,8.0,13.0,88,0.00,,---,0.01,VWS V14.01,2013-04-21 21:45:00,
2013-04-21 17:50:00,75.3,71.5,29.93,South,177,2.0,9.0,88,0.00,,---,0.01,VWS V14.01,2013-04-21 21:50:00,
2013-04-21 17:55:00,75.3,71.5,29.93,South,176,1.0,10.0,88,0.00,,---,0.01,VWS V14.01,2013-04-21 21:55:00,
2013-04-21 18:01:00,75.2,71.4,29.93,South,176,0.0,0.0,88,0.00,,---,0.01,VWS V14.01,2013-04-21 22:01:00,
2013-04-21 18:06:00,75.1,71.0,29.93,South,177,6.0,7.0,87,0.00,,---,0.01,VWS V14.01,2013-04-21 22:06:00,
2013-04-21 18:11:00,75.0,70.9,29.93,South,176,5.0,12.0,87,0.00,,---,0.01,VWS V14.01,2013-04-21 22:11:00,
2013-04-21 18:16:00,75.2,71.4,29.94,South,177,0.0,8.0,88,0.00,,---,0.01,VWS V14.01,2013-04-21 22:16:00,
2013-04-21 18:21:00,75.1,71.0,29.94,South,176,4.0,10.0,87,0.00,,---,0.01,VWS V14.01,2013-04-21 22:21:00,
2013-04-21 18:26:00,75.2,71.1,29.94,South,177,0.0,11.0,87,0.00,,---,0.01,VWS V14.01,2013-04-21 22:26:00,
2013-04-21 18:31:00,75.1,71.0,29.94,South,177,10.0,10.0,87,0.00,,---,0.01,VWS V14.01,2013-04-21 22:31:00,
2013-04-21 18:36:00,75.1,71.0,29.94,South,176,8.0,12.0,87,0.00,,---,0.01,VWS V14.01,2013-04-21 22:36:00,
2013-04-21 18:41:00,75.1,71.0,29.94,South,176,8.0,13.0,87,0.00,,---,0.01,VWS V14.01,2013-04-21 22:41:00,
2013-04-21 18:46:00,75.2,71.1,29.96,South,177,9.0,13.0,87,0.00,,---,0.01,VWS V14.01,2013-04-21 22:46:00,
2013-04-21 18:51:00,75.2,71.4,29.96,South,177,10.0,15.0,88,0.00,,---,0.01,VWS V14.01,2013-04-21 22:51:00,
2013-04-21 18:56:00,75.1,71.0,29.96,South,177,11.0,12.0,87,0.00,,---,0.01,VWS V14.01,2013-04-21 22:56:00,
2013-04-21 19:01:00,75.0,70.9,29.94,South,177,12.0,15.0,87,0.00,,---,0.01,VWS V14.01,2013-04-21 23:01:00,
2013-04-21 19:06:00,75.3,71.5,29.94,South,177,10.0,14.0,88,0.00,,---,0.01,VWS V14.01,2013-04-21 23:06:00,
2013-04-21 19:11:00,75.3,71.2,29.94,South,176,9.0,14.0,87,0.00,,---,0.01,VWS V14.01,2013-04-21 23:11:00,
2013-04-21 19:16:00,75.2,71.1,29.94,South,176,13.0,15.0,87,0.00,,---,0.01,VWS V14.01,2013-04-21 23:16:00,
2013-04-21 19:21:00,75.2,71.1,29.94,South,177,11.0,12.0,87,0.00,,---,0.01,VWS V14.01,2013-04-21 23:21:00,
2013-04-21 19:26:00,75.3,71.2,29.94,South,176,10.0,13.0,87,0.00,,---,0.01,VWS V14.01,2013-04-21 23:26:00,
2013-04-21 19:31:00,75.2,71.1,29.94,South,177,8.0,13.0,87,0.00,,---,0.01,VWS V14.01,2013-04-21 23:31:00,
2013-04-21 19:36:00,75.1,71.0,29.94,South,176,9.0,11.0,87,0.00,,---,0.01,VWS V14.01,2013-04-21 23:36:00,
2013-04-21 19:41:00,75.2,71.1,29.94,South,177,9.0,10.0,87,0.00,,---,0.01,VWS V14.01,2013-04-21 23:41:00,
2013-04-21 19:46:00,75.2,71.1,29.94,South,177,10.0,10.0,87,0.00,,---,0.01,VWS V14.01,2013-04-21 23:46:00,
2013-04-21 19:51:00,75.2,71.1,29.94,South,177,6.0,9.0,87,0.00,,---,0.01,VWS V14.01,2013-04-21 23:51:00,
2013-04-21 19:56:00,75.2,71.1,29.94,South,177,8.0,11.0,87,0.00,,---,0.01,VWS V14.01,2013-04-21 23:56:00,
2013-04-21 20:01:00,75.3,71.2,29.93,South,177,9.0,14.0,87,0.00,,---,0.01,VWS V14.01,2013-04-22 00:01:00,
2013-04-21 20:06:00,75.3,71.2,29.93,South,177,8.0,12.0,87,0.00,,---,0.01,VWS V14.01,2013-04-22 00:06:00,
2013-04-21 20:11:00,75.3,71.2,29.93,South,177,8.0,11.0,87,0.00,,---,0.01,VWS V14.01,2013-04-22 00:11:00,
2013-04-21 20:16:00,75.3,71.2,29.94,South,176,10.0,10.0,87,0.00,,---,0.01,VWS V14.01,2013-04-22 00:16:00,
2013-04-21 20:21:00,75.3,71.2,29.94,South,176,7.0,10.0,87,0.00,,---,0.01,VWS V14.01,2013-04-22 00:21:00,
2013-04-21 20:26:00,75.3,71.2,29.94,South,176,8.0,9.0,87,0.00,,---,0.01,VWS V14.01,2013-04-22 00:26:00,
2013-04-21 20:31:00,75.3,71.2,29.95,South,177,7.0,9.0,87,0.00,,---,0.01,VWS V14.01,2013-04-22 00:31:00,
2013-04-21 20:36:00,75.3,71.2,29.95,South,177,0.0,9.0,87,0.00,,---,0.01,VWS V14.01,2013-04-22 00:36:00,
2013-04-21 20:41:00,75.3,71.2,29.95,South,177,0.0,8.0,87,0.00,,---,0.01,VWS V14.01,2013-04-22 00:41:00,
2013-04-21 20:46:00,75.4,71.3,29.96,South,177,0.0,0.0,87,0.00,,---,0.01,VWS V14.01,2013-04-22 00:46:00,
2013-04-21 20:51:00,75.4,71.3,29.96,South,176,0.0,0.0,87,0.00,,---,0.01,VWS V14.01,2013-04-22 00:51:00,
2013-04-21 20:56:00,75.3,70.8,29.96,South,176,0.0,6.0,86,0.00,,---,0.01,VWS V14.01,2013-04-22 00:56:00,
2013-04-21 21:01:00,75.3,70.8,29.96,South,177,0.0,0.0,86,0.00,,---,0.01,VWS V14.01,2013-04-22 01:01:00,
2013-04-21 21:06:00,75.3,70.8,29.96,South,177,0.0,0.0,86,0.00,,---,0.01,VWS V14.01,2013-04-22 01:06:00,
2013-04-21 21:11:00,75.4,70.9,29.96,South,176,0.0,0.0,86,0.00,,---,0.01,VWS V14.01,2013-04-22 01:11:00,
2013-04-21 21:16:00,75.4,70.9,29.97,South,177,0.0,0.0,86,0.00,,---,0.01,VWS V14.01,2013-04-22 01:16:00,
2013-04-21 21:21:00,75.4,70.9,29.97,South,176,0.0,0.0,86,0.00,,---,0.01,VWS V14.01,2013-04-22 01:21:00,
2013-04-21 21:26:00,75.4,70.9,29.97,South,176,0.0,0.0,86,0.00,,---,0.01,VWS V14.01,2013-04-22 01:26:00,
2013-04-21 21:31:00,75.4,70.9,29.97,South,177,0.0,5.0,86,0.00,,---,0.01,VWS V14.01,2013-04-22 01:31:00,
2013-04-21 21:36:00,75.4,70.9,29.97,South,177,0.0,0.0,86,0.00,,---,0.01,VWS V14.01,2013-04-22 01:36:00,
2013-04-21 21:41:00,75.5,71.0,29.97,South,176,0.0,1.0,86,0.00,,---,0.01,VWS V14.01,2013-04-22 01:41:00,
2013-04-21 21:46:00,75.5,71.0,29.98,South,177,0.0,1.0,86,0.00,,---,0.01,VWS V14.01,2013-04-22 01:46:00,
2013-04-21 21:51:00,75.5,71.0,29.98,South,177,0.0,1.0,86,0.00,,---,0.01,VWS V14.01,2013-04-22 01:51:00,
2013-04-21 21:56:00,75.6,71.5,29.98,South,177,0.0,1.0,87,0.00,,---,0.01,VWS V14.01,2013-04-22 01:56:00,
2013-04-21 22:01:00,75.5,71.0,29.99,South,176,0.0,2.0,86,0.00,,---,0.01,VWS V14.01,2013-04-22 02:01:00,
2013-04-21 22:06:00,75.6,71.5,29.99,South,177,6.0,6.0,87,0.00,,---,0.01,VWS V14.01,2013-04-22 02:06:00,
2013-04-21 22:11:00,75.7,71.6,29.99,South,177,0.0,1.0,87,0.00,,---,0.01,VWS V14.01,2013-04-22 02:11:00,
2013-04-21 22:16:00,75.6,71.5,29.98,South,177,0.0,6.0,87,0.00,,---,0.01,VWS V14.01,2013-04-22 02:16:00,
2013-04-21 22:21:00,75.6,71.8,29.98,South,177,0.0,1.0,88,0.00,,---,0.01,VWS V14.01,2013-04-22 02:21:00,
2013-04-21 22:26:00,75.5,71.7,29.98,South,177,0.0,0.0,88,0.00,,---,0.01,VWS V14.01,2013-04-22 02:26:00,
2013-04-21 22:31:00,75.3,71.2,29.97,South,176,0.0,7.0,87,0.00,,---,0.01,VWS V14.01,2013-04-22 02:31:00,
2013-04-21 22:36:00,75.3,71.2,29.97,South,177,0.0,6.0,87,0.00,,---,0.01,VWS V14.01,2013-04-22 02:36:00,
2013-04-21 22:41:00,75.2,71.1,29.97,South,176,0.0,0.0,87,0.00,,---,0.01,VWS V14.01,2013-04-22 02:41:00,
2013-04-21 22:46:00,75.2,71.1,29.97,South,177,0.0,1.0,87,0.00,,---,0.01,VWS V14.01,2013-04-22 02:46:00,
2013-04-21 22:51:00,75.2,71.1,29.97,South,177,0.0,1.0,87,0.00,,---,0.01,VWS V14.01,2013-04-22 02:51:00,
2013-04-21 22:56:00,75.2,71.1,29.97,South,176,0.0,0.0,87,0.00,,---,0.01,VWS V14.01,2013-04-22 02:56:00,
2013-04-21 23:01:00,75.3,71.2,29.96,South,177,0.0,0.0,87,0.00,,---,0.01,VWS V14.01,2013-04-22 03:01:00,
2013-04-21 23:06:00,75.3,71.2,29.96,South,177,0.0,0.0,87,0.00,,---,0.01,VWS V14.01,2013-04-22 03:06:00,
2013-04-21 23:11:00,75.3,71.2,29.96,South,177,0.0,0.0,87,0.00,,---,0.01,VWS V14.01,2013-04-22 03:11:00,
2013-04-21 23:16:00,75.3,71.2,29.96,South,177,0.0,0.0,87,0.00,,---,0.01,VWS V14.01,2013-04-22 03:16:00,
2013-04-21 23:21:00,75.3,71.2,29.96,South,177,0.0,1.0,87,0.00,,---,0.01,VWS V14.01,2013-04-22 03:21:00,
2013-04-21 23:26:00,75.3,71.2,29.96,South,177,0.0,0.0,87,0.00,,---,0.01,VWS V14.01,2013-04-22 03:26:00,
2013-04-21 23:31:00,75.2,70.7,29.96,South,177,0.0,0.0,86,0.00,,---,0.01,VWS V14.01,2013-04-22 03:31:00,
2013-04-21 23:36:00,75.2,71.1,29.96,South,176,0.0,0.0,87,0.00,,---,0.01,VWS V14.01,2013-04-22 03:36:00,
2013-04-21 23:41:00,75.3,70.8,29.96,South,176,0.0,7.0,86,0.00,,---,0.01,VWS V14.01,2013-04-22 03:41:00,
2013-04-21 23:46:00,75.3,70.8,29.96,South,176,0.0,0.0,86,0.00,,---,0.01,VWS V14.01,2013-04-22 03:46:00,
2013-04-21 23:51:00,75.3,70.8,29.96,South,176,0.0,7.0,86,0.00,,---,0.01,VWS V14.01,2013-04-22 03:51:00,
2013-04-21 23:56:00,75.4,70.9,29.96,South,177,0.0,0.0,86,0.00,,---,0.01,VWS V14.01,2013-04-22 03:56:00,